createdAt,value
2019-05-09T00:00:29.864Z,9.95
2019-05-09T00:02:57.974Z,13.60
2019-05-09T00:05:26.097Z,10.25
2019-05-09T00:07:54.710Z,9.50
2019-05-09T00:10:38.086Z,11.40
2019-05-09T00:12:54.066Z,11.35
2019-05-09T00:15:24.174Z,11.22
2019-05-09T00:17:53.283Z,10.00
2019-05-09T00:20:43.460Z,15.70
2019-05-09T00:23:13.399Z,11.45
2019-05-09T00:25:43.278Z,12.73
2019-05-09T00:28:13.669Z,12.63
2019-05-09T00:31:16.773Z,11.33
2019-05-09T00:33:49.239Z,12.00
2019-05-09T00:36:17.965Z,13.75
2019-05-09T00:38:46.411Z,15.58
2019-05-09T00:43:48.415Z,14.60
2019-05-09T00:46:23.623Z,14.33
2019-05-09T00:49:00.835Z,14.73
2019-05-09T00:51:29.364Z,18.10
2019-05-09T00:53:57.920Z,16.93
2019-05-09T00:56:27.088Z,18.57
2019-05-09T00:58:55.291Z,16.85
2019-05-09T01:01:24.313Z,18.82
2019-05-09T01:03:53.542Z,17.32
2019-05-09T01:08:50.711Z,18.95
2019-05-09T01:11:19.519Z,20.02
2019-05-09T01:16:16.484Z,19.20
2019-05-09T01:18:46.582Z,18.57
2019-05-09T01:21:14.764Z,21.30
2019-05-09T01:23:43.575Z,20.57
2019-05-09T01:26:13.199Z,20.65
2019-05-09T01:28:41.492Z,22.40
2019-05-09T01:31:09.591Z,22.30
2019-05-09T01:33:53.434Z,21.50
2019-05-09T01:36:23.505Z,21.55
2019-05-09T01:41:27.888Z,24.63
2019-05-09T01:43:50.241Z,23.80
2019-05-09T01:46:18.824Z,22.10
2019-05-09T01:48:47.271Z,23.87
2019-05-09T01:51:16.003Z,25.75
2019-05-09T01:53:50.221Z,27.15
2019-05-09T01:56:18.607Z,24.25
2019-05-09T02:01:15.292Z,22.25
2019-05-09T02:03:44.315Z,24.57
2019-05-09T02:06:14.232Z,22.60
2019-05-09T02:08:43.834Z,24.18
2019-05-09T02:11:13.370Z,24.25
2019-05-09T02:13:44.066Z,23.90
2019-05-09T02:16:30.034Z,22.45
2019-05-09T02:19:07.913Z,22.10
2019-05-09T02:21:36.315Z,19.23
2019-05-09T02:24:04.609Z,21.48
2019-05-09T02:26:33.536Z,18.60
2019-05-09T02:29:03.240Z,16.00
2019-05-09T02:31:35.103Z,19.82
2019-05-09T02:34:04.621Z,18.77
2019-05-09T02:36:31.678Z,17.80
2019-05-09T02:38:59.750Z,14.35
2019-05-09T02:43:58.555Z,14.23
2019-05-09T02:46:34.850Z,12.35
2019-05-09T02:49:03.017Z,11.30
2019-05-09T02:51:32.405Z,15.03
2019-05-09T02:54:00.525Z,13.53
2019-05-09T02:56:29.639Z,14.07
2019-05-09T02:59:13.868Z,12.77
2019-05-09T03:01:50.628Z,13.40
2019-05-09T03:04:19.131Z,13.55
2019-05-09T03:06:49.220Z,14.33
2019-05-09T03:09:19.054Z,12.63
2019-05-09T03:11:48.523Z,15.30
2019-05-09T03:14:19.399Z,12.20
2019-05-09T03:16:49.153Z,11.78
2019-05-09T03:19:19.391Z,13.45
2019-05-09T03:21:54.380Z,12.65
2019-05-09T03:26:59.422Z,13.50
2019-05-09T03:29:39.446Z,14.90
2019-05-09T03:32:09.101Z,14.80
2019-05-09T03:34:38.443Z,12.85
2019-05-09T03:37:08.516Z,12.10
2019-05-09T03:39:37.704Z,13.15
2019-05-09T03:42:07.893Z,14.33
2019-05-09T03:44:38.337Z,11.40
2019-05-09T03:47:30.965Z,11.40
2019-05-09T03:52:42.578Z,15.90
2019-05-09T03:55:13.380Z,11.95
2019-05-09T03:57:47.636Z,12.43
2019-05-09T04:00:17.903Z,10.95
2019-05-09T04:05:13.626Z,11.28
2019-05-09T04:07:41.799Z,11.00
2019-05-09T04:10:10.288Z,11.53
2019-05-09T04:12:52.912Z,11.48
2019-05-09T04:15:09.087Z,11.60
2019-05-09T04:20:13.520Z,10.50
2019-05-09T04:22:41.652Z,9.53
2019-05-09T04:25:11.945Z,10.33
2019-05-09T04:27:41.321Z,11.28
2019-05-09T04:30:09.673Z,13.00
2019-05-09T04:32:38.185Z,12.40
2019-05-09T04:35:08.111Z,13.40
2019-05-09T04:40:04.968Z,15.15
2019-05-09T04:42:34.989Z,12.53
2019-05-09T04:45:17.717Z,12.28
2019-05-09T04:47:47.177Z,12.23
2019-05-09T04:50:23.555Z,12.80
2019-05-09T04:52:47.390Z,12.80
2019-05-09T04:55:18.090Z,13.40
2019-05-09T04:57:45.985Z,14.85
2019-05-09T05:00:18.391Z,13.50
2019-05-09T05:05:18.532Z,14.53
2019-05-09T05:07:48.067Z,18.07
2019-05-09T05:10:18.407Z,16.85
2019-05-09T05:12:48.390Z,17.32
2019-05-09T05:15:17.929Z,18.23
2019-05-09T05:20:19.877Z,18.00
2019-05-09T05:22:58.095Z,16.52
2019-05-09T05:25:27.920Z,16.62
2019-05-09T05:27:58.072Z,18.10
2019-05-09T05:33:00.840Z,18.70
2019-05-09T05:35:48.325Z,19.17
2019-05-09T05:38:17.631Z,18.42
2019-05-09T05:40:47.632Z,16.62
2019-05-09T05:43:17.383Z,17.23
2019-05-09T05:45:55.733Z,16.30
2019-05-09T05:48:27.931Z,18.37
2019-05-09T05:50:57.764Z,17.80
2019-05-09T05:53:27.732Z,18.30
2019-05-09T05:55:57.870Z,18.07
2019-05-09T05:58:28.190Z,18.10
2019-05-09T06:00:58.674Z,17.75
2019-05-09T06:03:28.271Z,19.60
2019-05-09T06:05:58.236Z,18.80
2019-05-09T06:08:27.573Z,18.77
2019-05-09T06:10:57.643Z,19.52
2019-05-09T06:15:54.173Z,21.80
2019-05-09T06:18:22.304Z,20.05
2019-05-09T06:23:19.451Z,19.82
2019-05-09T06:25:48.649Z,20.02
2019-05-09T06:28:18.174Z,17.90
2019-05-09T06:30:47.694Z,17.17
2019-05-09T06:33:18.038Z,20.30
2019-05-09T06:38:14.780Z,18.07
2019-05-09T06:40:43.306Z,20.23
2019-05-09T06:43:18.784Z,21.30
2019-05-09T06:46:04.899Z,19.80
2019-05-09T06:51:02.924Z,20.17
2019-05-09T06:53:31.067Z,18.73
2019-05-09T06:58:34.037Z,19.60
2019-05-09T07:01:24.663Z,17.92
2019-05-09T07:03:57.554Z,17.23
2019-05-09T07:09:12.161Z,19.65
2019-05-09T07:11:40.269Z,18.50
2019-05-09T07:14:32.313Z,17.92
2019-05-09T07:19:28.035Z,15.68
2019-05-09T07:22:20.717Z,17.15
2019-05-09T07:25:06.563Z,17.57
2019-05-09T07:30:03.335Z,18.20
2019-05-09T07:32:34.915Z,14.73
2019-05-09T07:35:03.161Z,13.58
2019-05-09T07:37:31.880Z,13.80
2019-05-09T07:40:00.027Z,13.10
2019-05-09T07:42:28.676Z,14.13
2019-05-09T07:44:59.188Z,13.50
2019-05-09T07:49:55.578Z,18.85
2019-05-09T07:52:24.248Z,15.10
2019-05-09T07:54:52.317Z,14.28
2019-05-09T07:57:21.057Z,13.68
2019-05-09T07:59:49.448Z,13.93
2019-05-09T08:04:48.668Z,11.45
2019-05-09T08:07:17.613Z,10.58
2019-05-09T08:09:47.570Z,12.63
2019-05-09T08:12:17.978Z,12.40
2019-05-09T08:15:02.922Z,10.20
2019-05-09T08:17:18.116Z,10.35
2019-05-09T08:19:48.406Z,10.98
2019-05-09T08:22:21.312Z,9.05
2019-05-09T08:24:48.320Z,10.18
2019-05-09T08:27:17.502Z,11.28
2019-05-09T08:29:47.851Z,11.57
2019-05-09T08:32:17.956Z,32.50
2019-05-09T08:34:48.262Z,83.52
2019-05-09T08:37:17.554Z,12.43
2019-05-09T08:39:48.505Z,11.30
2019-05-09T08:42:17.989Z,9.43
2019-05-09T08:44:48.267Z,9.03
2019-05-09T08:47:18.470Z,9.18
2019-05-09T08:50:07.986Z,11.48
2019-05-09T08:52:37.645Z,11.33
2019-05-09T08:55:08.102Z,11.75
2019-05-09T09:00:04.370Z,10.63
2019-05-09T09:02:33.046Z,8.83
2019-05-09T09:05:02.226Z,8.73
2019-05-09T09:07:30.816Z,8.90
2019-05-09T09:09:59.827Z,8.50
2019-05-09T09:12:34.072Z,10.20
2019-05-09T09:14:59.245Z,9.55
2019-05-09T09:17:28.142Z,8.97
2019-05-09T09:19:58.255Z,9.78
2019-05-09T09:22:28.413Z,7.50
2019-05-09T09:27:27.636Z,8.03
2019-05-09T09:29:58.500Z,8.93
2019-05-09T09:32:28.074Z,12.50
2019-05-09T09:34:58.537Z,9.05
2019-05-09T09:37:28.314Z,12.63
2019-05-09T09:39:58.195Z,9.88
2019-05-09T09:42:28.177Z,17.32
2019-05-09T09:44:58.324Z,22.43
2019-05-09T09:49:55.176Z,10.85
2019-05-09T09:52:23.803Z,9.58
2019-05-09T09:57:20.449Z,6.55
2019-05-09T10:02:39.994Z,6.83
2019-05-09T10:05:08.641Z,8.63
2019-05-09T10:10:07.853Z,9.20
2019-05-09T10:12:43.575Z,7.65
2019-05-09T10:15:18.886Z,8.90
2019-05-09T10:17:52.704Z,8.20
2019-05-09T10:20:29.276Z,7.50
2019-05-09T10:23:03.337Z,9.20
2019-05-09T10:25:29.892Z,8.95
2019-05-09T10:27:59.134Z,8.90
2019-05-09T10:30:30.875Z,6.97
2019-05-09T10:32:59.130Z,8.55
2019-05-09T10:35:27.978Z,7.70
2019-05-09T10:37:58.796Z,8.05
2019-05-09T10:42:59.056Z,6.50
2019-05-09T10:50:45.196Z,7.05
2019-05-09T10:53:11.788Z,6.20
2019-05-09T10:55:40.229Z,9.90
2019-05-09T10:58:08.407Z,8.93
2019-05-09T11:00:39.223Z,6.72
2019-05-09T11:03:08.717Z,8.00
2019-05-09T11:05:37.021Z,9.13
2019-05-09T11:08:07.933Z,5.15
2019-05-09T11:13:03.518Z,6.87
2019-05-09T11:15:32.036Z,9.85
2019-05-09T11:18:00.088Z,10.75
2019-05-09T11:20:28.597Z,7.10
2019-05-09T11:22:58.179Z,7.70
2019-05-09T11:25:27.910Z,22.73
2019-05-09T11:28:10.029Z,12.35
2019-05-09T11:32:54.749Z,8.68
2019-05-09T11:35:23.114Z,7.90
2019-05-09T11:40:21.014Z,9.28
2019-05-09T11:42:49.046Z,9.20
2019-05-09T11:47:46.739Z,5.80
2019-05-09T11:50:15.083Z,7.90
2019-05-09T11:52:43.523Z,9.45
2019-05-09T11:55:28.654Z,8.97
2019-05-09T11:57:41.341Z,6.78
2019-05-09T12:00:09.862Z,6.47
2019-05-09T12:02:38.459Z,7.65
2019-05-09T12:05:08.764Z,7.42
2019-05-09T12:07:37.894Z,14.33
2019-05-09T12:10:07.782Z,18.73
2019-05-09T12:12:38.797Z,11.25
2019-05-09T12:15:08.586Z,8.15
2019-05-09T12:17:51.071Z,6.67
2019-05-09T12:20:12.189Z,10.00
2019-05-09T12:22:36.606Z,5.85
2019-05-09T12:25:04.995Z,6.55
2019-05-09T12:27:33.651Z,4.60
2019-05-09T12:30:01.778Z,5.10
2019-05-09T12:32:29.916Z,6.22
2019-05-09T12:34:58.822Z,6.30
2019-05-09T12:37:28.165Z,4.70
2019-05-09T12:39:58.576Z,6.33
2019-05-09T12:42:28.951Z,7.47
2019-05-09T12:44:58.986Z,5.70
2019-05-09T12:47:29.054Z,6.63
2019-05-09T12:52:28.595Z,6.40
2019-05-09T12:54:58.140Z,5.80
2019-05-09T12:57:32.340Z,5.92
2019-05-09T13:00:00.326Z,6.55
2019-05-09T13:02:28.710Z,7.70
2019-05-09T13:04:57.446Z,6.75
2019-05-09T13:07:29.469Z,5.37
2019-05-09T13:09:58.076Z,7.08
2019-05-09T13:12:25.391Z,8.83
2019-05-09T13:14:53.420Z,13.40
2019-05-09T13:17:42.953Z,7.20
2019-05-09T13:20:11.909Z,14.35
2019-05-09T13:22:40.276Z,15.53
2019-05-09T13:25:09.601Z,8.70
2019-05-09T13:27:38.919Z,7.60
2019-05-09T13:30:08.379Z,5.10
2019-05-09T13:32:37.512Z,7.78
2019-05-09T13:35:06.635Z,5.10
2019-05-09T13:37:37.974Z,4.17
2019-05-09T13:40:04.990Z,5.80
2019-05-09T13:42:33.066Z,8.58
2019-05-09T13:45:01.475Z,8.20
2019-05-09T13:47:31.285Z,6.72
2019-05-09T13:50:00.489Z,5.20
2019-05-09T13:52:28.656Z,8.75
2019-05-09T13:54:58.587Z,5.55
2019-05-09T13:57:27.777Z,5.50
2019-05-09T13:59:58.506Z,5.28
2019-05-09T14:02:29.097Z,6.27
2019-05-09T14:04:58.350Z,5.77
2019-05-09T14:09:54.991Z,6.20
2019-05-09T14:12:23.478Z,6.20
2019-05-09T14:17:39.527Z,5.97
2019-05-09T14:19:50.998Z,7.30
2019-05-09T14:22:20.187Z,7.37
2019-05-09T14:24:48.680Z,6.80
2019-05-09T14:27:18.724Z,5.72
2019-05-09T14:29:49.516Z,5.37
2019-05-09T14:32:17.640Z,21.82
2019-05-09T14:34:48.040Z,5.42
2019-05-09T14:37:17.935Z,4.40
2019-05-09T14:39:55.816Z,5.30
2019-05-09T14:42:15.498Z,3.83
2019-05-09T14:44:43.751Z,5.25
2019-05-09T14:47:12.137Z,8.08
2019-05-09T14:49:44.235Z,6.42
2019-05-09T14:52:10.021Z,3.90
2019-05-09T14:54:39.761Z,8.80
2019-05-09T14:59:45.913Z,5.20
2019-05-09T15:02:14.657Z,4.95
2019-05-09T15:07:11.810Z,4.30
2019-05-09T15:09:40.426Z,4.78
2019-05-09T15:14:38.315Z,4.57
2019-05-09T15:17:08.734Z,5.12
2019-05-09T15:19:38.585Z,4.95
2019-05-09T15:22:08.343Z,4.37
2019-05-09T15:24:35.872Z,3.12
2019-05-09T15:27:04.323Z,5.50
2019-05-09T15:29:32.471Z,6.53
2019-05-09T15:32:05.543Z,4.47
2019-05-09T15:34:31.118Z,4.10
2019-05-09T15:36:59.376Z,6.22
2019-05-09T15:39:30.111Z,4.53
2019-05-09T15:42:07.446Z,12.90
2019-05-09T15:44:36.117Z,5.20
2019-05-09T15:47:10.095Z,5.20
2019-05-09T15:49:38.598Z,5.67
2019-05-09T15:52:07.387Z,3.40
2019-05-09T15:54:38.546Z,3.90
2019-05-09T15:57:08.879Z,5.90
2019-05-09T15:59:41.479Z,4.53
2019-05-09T16:04:40.520Z,5.00
2019-05-09T16:07:09.322Z,4.67
2019-05-09T16:09:37.902Z,4.58
2019-05-09T16:12:14.739Z,3.95
2019-05-09T16:17:19.279Z,6.00
2019-05-09T16:19:48.345Z,5.45
2019-05-09T16:22:18.954Z,4.83
2019-05-09T16:24:48.588Z,3.22
2019-05-09T16:27:17.042Z,5.27
2019-05-09T16:29:45.160Z,5.20
2019-05-09T16:32:13.290Z,5.00
2019-05-09T16:34:41.348Z,6.90
2019-05-09T16:37:09.548Z,6.45
2019-05-09T16:39:37.961Z,3.90
2019-05-09T16:42:06.501Z,4.95
2019-05-09T16:47:03.058Z,5.50
2019-05-09T16:49:32.168Z,3.97
2019-05-09T16:52:00.675Z,3.87
2019-05-09T16:54:33.031Z,4.75
2019-05-09T16:57:01.182Z,4.75
2019-05-09T16:59:29.304Z,3.27
2019-05-09T17:01:57.816Z,3.70
2019-05-09T17:04:27.783Z,3.02
2019-05-09T17:09:24.785Z,4.35
2019-05-09T17:11:52.821Z,3.30
2019-05-09T17:16:52.749Z,4.80
2019-05-09T17:19:19.881Z,7.10
2019-05-09T17:21:53.234Z,7.17
2019-05-09T17:24:21.808Z,4.90
2019-05-09T17:26:50.510Z,4.58
2019-05-09T17:29:19.421Z,3.25
2019-05-09T17:31:48.849Z,5.20
2019-05-09T17:34:18.043Z,7.33
2019-05-09T17:36:46.583Z,4.13
2019-05-09T17:39:14.814Z,5.00
2019-05-09T17:44:11.627Z,2.80
2019-05-09T17:46:39.727Z,4.67
2019-05-09T17:49:08.392Z,3.85
2019-05-09T17:51:36.611Z,4.28
2019-05-09T17:54:07.820Z,4.28
2019-05-09T17:56:37.675Z,10.23
2019-05-09T17:59:05.393Z,4.03
2019-05-09T18:01:33.613Z,3.12
2019-05-09T18:04:02.875Z,4.33
2019-05-09T18:06:31.265Z,4.05
2019-05-09T18:08:59.730Z,4.47
2019-05-09T18:11:27.884Z,4.33
2019-05-09T18:13:56.056Z,4.50
2019-05-09T18:16:24.566Z,8.00
2019-05-09T18:21:23.096Z,5.53
2019-05-09T18:23:51.159Z,5.47
2019-05-09T18:28:48.033Z,3.83
2019-05-09T18:31:16.719Z,11.22
2019-05-09T18:33:53.475Z,4.67
2019-05-09T18:36:21.636Z,5.80
2019-05-09T18:38:50.330Z,5.62
2019-05-09T18:41:18.675Z,4.58
2019-05-09T18:43:47.943Z,4.55
2019-05-09T18:48:45.348Z,4.80
2019-05-09T18:51:13.549Z,5.90
2019-05-09T18:53:41.873Z,4.40
2019-05-09T18:56:10.221Z,4.73
2019-05-09T18:58:38.829Z,3.60
2019-05-09T19:01:07.143Z,5.70
2019-05-09T19:03:35.140Z,4.95
2019-05-09T19:08:31.255Z,5.40
2019-05-09T19:10:59.624Z,8.05
2019-05-09T19:13:27.651Z,5.10
2019-05-09T19:16:02.232Z,3.85
2019-05-09T19:18:48.069Z,4.80
2019-05-09T19:21:23.071Z,8.68
2019-05-09T19:23:51.101Z,6.75
2019-05-09T19:26:37.463Z,6.33
2019-05-09T19:29:08.978Z,5.15
2019-05-09T19:31:37.866Z,4.80
2019-05-09T19:36:33.992Z,5.10
2019-05-09T19:39:02.156Z,4.20
2019-05-09T19:43:58.326Z,4.53
2019-05-09T19:46:26.619Z,4.30
2019-05-09T19:48:54.653Z,4.47
2019-05-09T19:51:22.676Z,3.85
2019-05-09T19:53:50.712Z,5.03
2019-05-09T19:56:18.724Z,5.20
2019-05-09T19:58:46.797Z,4.03
2019-05-09T20:03:42.913Z,4.80
2019-05-09T20:06:11.276Z,3.58
2019-05-09T20:08:39.815Z,4.62
2019-05-09T20:11:22.408Z,3.33
2019-05-09T20:14:08.152Z,4.53
2019-05-09T20:16:38.621Z,2.80
2019-05-09T20:19:07.284Z,3.35
2019-05-09T20:21:36.446Z,4.05
2019-05-09T20:26:33.594Z,4.07
2019-05-09T20:29:01.864Z,2.92
2019-05-09T20:31:29.959Z,3.00
2019-05-09T20:33:58.107Z,3.90
2019-05-09T20:36:26.664Z,3.02
2019-05-09T20:38:55.386Z,5.37
2019-05-09T20:41:24.344Z,2.98
2019-05-09T20:46:21.242Z,3.90
2019-05-09T20:48:49.622Z,2.87
2019-05-09T20:51:18.574Z,3.35
2019-05-09T20:53:47.235Z,4.20
2019-05-09T20:56:16.210Z,4.30
2019-05-09T20:58:44.711Z,5.28
2019-05-09T21:01:12.969Z,2.87
2019-05-09T21:03:41.631Z,4.28
2019-05-09T21:08:39.024Z,3.30
2019-05-09T21:11:07.314Z,2.55
2019-05-09T21:13:47.925Z,4.10
2019-05-09T21:16:06.982Z,3.65
2019-05-09T21:21:03.965Z,3.22
2019-05-09T21:23:32.724Z,3.05
2019-05-09T21:28:31.058Z,2.00
2019-05-09T21:30:59.439Z,2.67
2019-05-09T21:33:27.730Z,2.50
2019-05-09T21:36:29.914Z,4.83
2019-05-09T21:38:57.993Z,3.15
2019-05-09T21:41:26.441Z,2.40
2019-05-09T21:46:23.331Z,3.22
2019-05-09T21:48:52.027Z,3.35
2019-05-09T21:51:20.736Z,2.58
2019-05-09T21:53:49.117Z,3.40
2019-05-09T21:58:46.288Z,4.40
2019-05-09T22:01:16.226Z,3.80
2019-05-09T22:03:44.822Z,3.60
2019-05-09T22:06:13.420Z,3.37
2019-05-09T22:08:41.585Z,3.00
2019-05-09T22:11:09.778Z,3.20
2019-05-09T22:13:38.400Z,3.90
2019-05-09T22:18:35.023Z,2.70
2019-05-09T22:21:03.276Z,3.40
2019-05-09T22:23:32.477Z,3.33
2019-05-09T22:26:01.322Z,3.70
2019-05-09T22:30:58.861Z,3.30
2019-05-09T22:33:27.433Z,4.80
2019-05-09T22:35:56.035Z,4.17
2019-05-09T22:38:24.510Z,7.97
2019-05-09T22:40:52.865Z,5.35
2019-05-09T22:43:20.862Z,5.83
2019-05-09T22:45:49.512Z,4.80
2019-05-09T22:50:46.474Z,4.60
2019-05-09T22:53:14.567Z,4.60
2019-05-09T22:55:43.016Z,3.90
2019-05-09T22:58:11.904Z,5.17
2019-05-09T23:00:40.271Z,6.58
2019-05-09T23:03:08.445Z,4.90
2019-05-09T23:05:38.092Z,3.80
2019-05-09T23:10:35.429Z,5.40
2019-05-09T23:13:03.562Z,7.40
2019-05-09T23:15:32.023Z,8.28
2019-05-09T23:18:02.350Z,6.78
2019-05-09T23:20:48.146Z,7.05
2019-05-09T23:23:29.730Z,11.35
2019-05-09T23:25:58.821Z,9.65
2019-05-09T23:28:27.500Z,8.05
2019-05-09T23:33:26.916Z,8.88
2019-05-09T23:35:55.575Z,7.22
2019-05-09T23:38:24.116Z,8.25
2019-05-09T23:40:52.276Z,9.18
2019-05-09T23:45:48.626Z,15.65
2019-05-09T23:48:17.815Z,10.93
2019-05-09T23:50:46.929Z,11.95
2019-05-09T23:53:19.327Z,10.98
2019-05-09T23:56:06.265Z,11.53
2019-05-09T23:58:52.196Z,10.63
